Time;durP1;ratioP1;P1;durP2;ratioP2;P2;SDS_P1;SDS_P2;PMS_P1;PMS_P2;Temp;Humidity;BMP_temperature;BMP_pressure;BME280_temperature;BME280_humidity;BME280_pressure;Samples;Min_cycle;Max_cycle;Signal;HPM_P1;HPM_P2
2021/10/16 04:00:57;;;;;;;5.33;3.43;;;2.80;96.30;;;;;;5765460;23;20588;-79
2021/10/16 04:03:23;;;;;;;9.80;3.70;;;2.90;96.30;;;;;;4954047;28;20470;-78
2021/10/16 04:05:48;;;;;;;6.10;3.70;;;2.90;96.30;;;;;;4953291;29;20433;-78
2021/10/16 04:08:14;;;;;;;4.77;4.30;;;3.00;96.30;;;;;;4954473;28;20171;-79
2021/10/16 04:10:39;;;;;;;8.80;4.00;;;3.10;96.30;;;;;;4953077;28;20190;-79
2021/10/16 04:13:05;;;;;;;7.23;4.63;;;3.20;96.30;;;;;;4953877;28;20179;-80
2021/10/16 04:15:30;;;;;;;5.10;4.40;;;3.30;96.30;;;;;;4960155;28;20214;-79
2021/10/16 04:17:56;;;;;;;5.77;3.80;;;3.40;96.30;;;;;;4955038;29;20190;-80
2021/10/16 04:20:21;;;;;;;7.33;4.00;;;3.40;96.30;;;;;;4954462;28;20226;-79
2021/10/16 04:22:47;;;;;;;7.30;3.40;;;3.40;96.30;;;;;;4953965;28;20211;-79
2021/10/16 04:25:13;;;;;;;5.00;4.00;;;3.30;96.30;;;;;;4959693;28;20829;-80
2021/10/16 04:27:38;;;;;;;4.90;3.60;;;3.20;96.30;;;;;;4956271;29;20462;-80
2021/10/16 04:30:05;;;;;;;10.70;4.20;;;3.10;96.30;;;;;;4960546;28;20217;-79
2021/10/16 04:32:31;;;;;;;9.77;4.00;;;3.10;96.30;;;;;;4952020;29;20203;-80
2021/10/16 04:34:56;;;;;;;16.87;4.00;;;3.10;96.30;;;;;;4953305;29;20477;-79
2021/10/16 04:37:22;;;;;;;7.07;3.67;;;3.10;96.30;;;;;;4953132;29;20183;-80
2021/10/16 04:39:48;;;;;;;5.30;3.37;;;3.00;96.30;;;;;;4954459;28;20647;-80
2021/10/16 04:42:15;;;;;;;3.87;3.40;;;3.00;96.30;;;;;;4952233;29;20230;-80
2021/10/16 04:44:41;;;;;;;8.43;5.20;;;2.90;96.30;;;;;;4954289;28;20665;-79
2021/10/16 04:47:08;;;;;;;4.87;3.67;;;2.80;96.30;;;;;;4954425;28;20442;-80
2021/10/16 04:49:34;;;;;;;5.30;4.40;;;2.80;96.30;;;;;;4954271;28;20171;-80
2021/10/16 04:52:02;;;;;;;7.73;3.90;;;2.80;96.30;;;;;;4953477;29;20442;-79
2021/10/16 04:54:28;;;;;;;13.80;5.60;;;2.90;96.30;;;;;;4952798;29;20962;-79
2021/10/16 04:56:53;;;;;;;5.37;4.40;;;3.00;96.30;;;;;;4952954;28;20513;-80
2021/10/16 04:59:19;;;;;;;10.83;4.43;;;3.00;96.30;;;;;;4952968;29;20183;-80
2021/10/16 05:01:44;;;;;;;6.97;4.80;;;3.00;96.30;;;;;;4953525;28;20218;-80
2021/10/16 05:04:10;;;;;;;8.40;4.30;;;3.00;96.30;;;;;;4952876;29;20179;-81
2021/10/16 05:06:35;;;;;;;11.33;4.33;;;3.10;96.30;;;;;;4952832;29;20279;-80
2021/10/16 05:09:01;;;;;;;5.80;4.43;;;3.20;96.30;;;;;;4952785;29;20183;-80
2021/10/16 05:11:26;;;;;;;8.00;4.67;;;3.30;96.30;;;;;;4953353;28;20198;-80
2021/10/16 05:13:52;;;;;;;11.37;4.60;;;3.40;96.30;;;;;;4953980;29;20690;-81
2021/10/16 05:16:17;;;;;;;5.87;3.90;;;3.60;96.30;;;;;;4953896;28;20225;-80
2021/10/16 05:18:43;;;;;;;21.47;5.93;;;3.60;96.30;;;;;;4953877;28;20262;-80
2021/10/16 05:21:09;;;;;;;6.43;3.93;;;3.50;96.30;;;;;;4951989;29;20206;-80
2021/10/16 05:23:35;;;;;;;11.43;4.43;;;3.50;96.30;;;;;;4953598;28;20222;-81
2021/10/16 05:26:01;;;;;;;7.03;4.30;;;3.40;96.30;;;;;;4952628;29;20872;-80
2021/10/16 05:28:26;;;;;;;6.37;3.70;;;3.30;96.30;;;;;;4946228;29;20211;-80
2021/10/16 05:30:52;;;;;;;9.67;4.70;;;3.20;96.30;;;;;;4952565;29;20206;-80
2021/10/16 05:33:17;;;;;;;7.93;4.43;;;3.10;96.30;;;;;;4953171;28;20221;-81
2021/10/16 05:35:45;;;;;;;5.67;4.57;;;3.10;96.30;;;;;;4952512;29;20561;-80
2021/10/16 05:38:12;;;;;;;4.93;4.50;;;2.90;96.30;;;;;;4953768;28;20190;-80
2021/10/16 05:40:37;;;;;;;16.67;7.57;;;2.90;96.30;;;;;;4953596;28;20480;-79
2021/10/16 05:43:03;;;;;;;8.10;4.27;;;2.80;96.30;;;;;;4952573;28;21375;-80
2021/10/16 05:45:28;;;;;;;6.93;4.80;;;2.80;96.30;;;;;;4939488;29;20175;-80
2021/10/16 05:47:54;;;;;;;4.50;4.03;;;2.80;96.30;;;;;;4952657;29;20270;-81
2021/10/16 05:50:19;;;;;;;15.83;8.40;;;2.70;96.30;;;;;;4956841;28;20187;-80
2021/10/16 05:52:45;;;;;;;13.00;6.33;;;2.60;96.30;;;;;;4945112;28;20184;-80
2021/10/16 05:55:10;;;;;;;8.47;4.43;;;2.50;96.30;;;;;;4937497;29;20184;-79
2021/10/16 05:57:36;;;;;;;10.23;4.97;;;2.50;96.30;;;;;;4936401;29;20210;-79
2021/10/16 06:00:03;;;;;;;9.40;5.20;;;2.60;96.30;;;;;;4937726;29;20767;-81
2021/10/16 06:02:29;;;;;;;11.63;5.33;;;2.70;96.30;;;;;;4937751;29;20219;-80
2021/10/16 06:04:54;;;;;;;10.93;5.03;;;2.80;96.30;;;;;;4937388;29;20962;-80
2021/10/16 06:07:19;;;;;;;11.93;5.37;;;3.00;96.30;;;;;;4936500;29;20262;-81
2021/10/16 06:09:45;;;;;;;10.00;5.10;;;3.10;96.30;;;;;;4937564;29;20176;-80
2021/10/16 06:12:10;;;;;;;12.93;5.97;;;3.40;96.30;;;;;;4935680;29;20214;-80
2021/10/16 06:14:36;;;;;;;11.13;6.03;;;3.60;96.30;;;;;;4936266;29;20179;-81
2021/10/16 06:17:03;;;;;;;15.00;8.27;;;3.80;96.30;;;;;;4936280;29;20239;-80
2021/10/16 06:19:28;;;;;;;26.00;13.10;;;3.90;96.30;;;;;;4937469;29;20171;-81
2021/10/16 06:21:54;;;;;;;25.40;12.87;;;4.00;96.30;;;;;;4937085;29;20454;-81
2021/10/16 06:24:19;;;;;;;18.10;8.50;;;4.00;96.30;;;;;;4937397;29;20168;-81
2021/10/16 06:26:45;;;;;;;16.27;7.70;;;4.10;96.30;;;;;;4939467;29;20325;-80
2021/10/16 06:29:10;;;;;;;17.53;9.50;;;4.20;96.30;;;;;;4956467;28;20175;-81
2021/10/16 06:31:36;;;;;;;24.17;8.67;;;4.30;96.30;;;;;;4955756;28;20245;-81
2021/10/16 06:34:02;;;;;;;11.57;7.80;;;4.40;96.30;;;;;;4955140;29;20662;-82
2021/10/16 06:36:27;;;;;;;14.30;8.27;;;4.50;96.30;;;;;;4955240;29;20179;-81
2021/10/16 06:38:53;;;;;;;16.50;9.10;;;4.60;96.30;;;;;;4954951;29;20414;-80
2021/10/16 06:41:19;;;;;;;26.23;8.67;;;4.80;96.30;;;;;;4954345;28;20199;-79
2021/10/16 06:43:45;;;;;;;20.47;9.50;;;4.90;96.30;;;;;;4956142;28;20210;-80
2021/10/16 06:46:11;;;;;;;18.53;9.17;;;5.00;96.30;;;;;;4954881;29;20950;-79
2021/10/16 06:48:36;;;;;;;15.77;9.43;;;5.40;96.30;;;;;;4956026;28;20546;-80
2021/10/16 06:51:02;;;;;;;16.57;8.37;;;5.90;96.30;;;;;;4955401;28;20224;-79
2021/10/16 06:53:27;;;;;;;11.07;7.37;;;6.40;96.30;;;;;;4956222;28;20209;-80
2021/10/16 06:55:53;;;;;;;10.93;6.60;;;7.20;96.30;;;;;;4956157;28;20229;-80
2021/10/16 06:58:18;;;;;;;12.87;6.90;;;8.00;96.30;;;;;;4953361;28;20183;-80
2021/10/16 07:00:44;;;;;;;12.20;6.30;;;8.60;96.30;;;;;;4956413;28;20614;-80
2021/10/16 07:03:14;;;;;;;5.90;4.30;;;9.10;96.30;;;;;;4954140;29;20288;-80
2021/10/16 07:05:40;;;;;;;9.30;3.70;;;8.80;96.30;;;;;;4955021;29;20182;-80
2021/10/16 07:08:05;;;;;;;5.80;3.20;;;8.60;96.30;;;;;;4956830;28;20419;-80
2021/10/16 07:10:31;;;;;;;6.50;3.60;;;8.20;96.30;;;;;;4956877;29;20407;-80
2021/10/16 07:13:01;;;;;;;5.40;3.90;;;8.00;96.30;;;;;;4954603;29;20775;-79
2021/10/16 07:15:26;;;;;;;7.70;4.93;;;8.00;96.30;;;;;;4954819;29;20175;-80
2021/10/16 07:17:51;;;;;;;9.43;4.60;;;7.80;96.30;;;;;;4954942;29;20511;-80
2021/10/16 07:20:17;;;;;;;38.77;29.93;;;7.80;96.30;;;;;;4954753;29;20274;-79
2021/10/16 07:22:43;;;;;;;63.53;40.77;;;7.90;96.30;;;;;;4953724;29;20484;-80
2021/10/16 07:25:08;;;;;;;99.00;60.77;;;7.90;96.30;;;;;;4954469;29;20179;-80
2021/10/16 07:27:34;;;;;;;79.13;46.77;;;8.00;96.30;;;;;;4956063;28;20535;-80
2021/10/16 07:29:59;;;;;;;16.00;8.30;;;8.00;96.30;;;;;;4955722;28;20226;-79
2021/10/16 07:32:25;;;;;;;5.90;4.30;;;8.00;96.30;;;;;;4955277;28;20714;-79
2021/10/16 07:34:50;;;;;;;5.90;4.47;;;8.10;96.30;;;;;;4955285;28;20179;-80
2021/10/16 07:37:16;;;;;;;8.60;5.40;;;7.90;96.30;;;;;;4955729;28;20524;-79
2021/10/16 07:39:41;;;;;;;6.33;4.20;;;8.10;96.30;;;;;;4945137;29;20554;-79
2021/10/16 07:42:07;;;;;;;8.50;5.33;;;8.30;96.30;;;;;;4962361;28;20214;-79
2021/10/16 07:44:32;;;;;;;10.37;5.70;;;8.30;96.30;;;;;;4950895;29;20600;-79
2021/10/16 07:46:58;;;;;;;9.70;5.40;;;8.50;96.30;;;;;;4954517;29;20182;-79
2021/10/16 07:49:23;;;;;;;12.80;5.40;;;8.60;96.30;;;;;;4955654;28;20178;-80
2021/10/16 07:51:49;;;;;;;12.23;5.20;;;8.50;96.30;;;;;;4937491;28;20608;-77
2021/10/16 07:54:14;;;;;;;13.50;5.90;;;8.50;96.30;;;;;;4935794;29;20207;-79
2021/10/16 07:56:40;;;;;;;8.03;5.40;;;8.50;96.30;;;;;;4935619;29;20542;-77
2021/10/16 07:59:05;;;;;;;8.80;5.67;;;8.30;96.30;;;;;;4935837;29;20513;-79
2021/10/16 08:01:31;;;;;;;9.60;4.80;;;8.10;96.30;;;;;;4934899;29;20219;-78
2021/10/16 08:03:57;;;;;;;7.03;4.93;;;8.10;96.30;;;;;;4950855;28;20208;-78
2021/10/16 08:06:23;;;;;;;11.77;6.00;;;8.10;96.30;;;;;;4954319;28;20178;-78
2021/10/16 08:08:48;;;;;;;11.33;6.40;;;8.20;96.30;;;;;;4954597;28;20411;-77
2021/10/16 08:11:14;;;;;;;13.70;6.00;;;8.30;96.30;;;;;;4952805;29;20210;-79
2021/10/16 08:13:39;;;;;;;10.43;6.30;;;8.30;96.30;;;;;;4954931;28;20249;-79
2021/10/16 08:16:05;;;;;;;9.73;5.73;;;8.40;96.30;;;;;;4955534;28;20175;-79
2021/10/16 08:18:30;;;;;;;13.57;6.70;;;8.50;96.30;;;;;;4953401;29;20681;-79
2021/10/16 08:20:56;;;;;;;15.63;5.97;;;8.60;96.30;;;;;;4954207;28;20565;-79
2021/10/16 08:23:21;;;;;;;12.40;6.80;;;8.80;96.30;;;;;;4953408;29;20206;-78
2021/10/16 08:25:47;;;;;;;17.53;8.63;;;8.70;96.30;;;;;;4954220;28;20517;-77
2021/10/16 08:28:14;;;;;;;15.63;7.23;;;9.00;96.30;;;;;;4945897;28;20180;-78
2021/10/16 08:30:50;;;;;;;10.27;5.97;;;9.20;96.30;;;;;;4952174;28;20195;-78
2021/10/16 08:33:17;;;;;;;11.37;5.13;;;9.40;96.30;;;;;;4950356;29;20418;-78
2021/10/16 08:35:43;;;;;;;9.73;5.37;;;9.50;96.30;;;;;;4935634;29;20420;-79
2021/10/16 08:38:08;;;;;;;10.30;4.90;;;9.50;96.30;;;;;;4934778;29;20950;-78
2021/10/16 08:40:34;;;;;;;12.33;5.90;;;9.40;96.30;;;;;;4934976;29;20234;-79
2021/10/16 08:43:01;;;;;;;11.13;5.50;;;9.30;96.30;;;;;;4943106;29;20226;-81
2021/10/16 08:45:27;;;;;;;10.73;5.53;;;9.20;96.30;;;;;;4954622;28;20922;-81
2021/10/16 08:47:54;;;;;;;11.83;4.03;;;9.10;96.30;;;;;;4953450;29;20446;-80
2021/10/16 08:50:20;;;;;;;19.20;4.63;;;8.80;96.30;;;;;;4938833;29;20198;-81
2021/10/16 08:52:46;;;;;;;12.97;3.80;;;9.10;96.30;;;;;;4954738;28;20422;-80
2021/10/16 08:55:15;;;;;;;11.43;4.90;;;9.20;96.30;;;;;;4954872;28;20468;-80
2021/10/16 08:57:43;;;;;;;12.00;3.40;;;9.40;96.30;;;;;;4953406;29;20171;-80
2021/10/16 09:00:37;;;;;;;16.37;3.50;;;9.40;96.30;;;;;;4955395;28;20407;-80
2021/10/16 09:03:22;;;;;;;7.20;3.43;;;9.20;96.30;;;;;;4952427;28;20833;-81
2021/10/16 09:06:07;;;;;;;10.73;2.73;;;9.00;96.30;;;;;;4943319;29;20419;-81
2021/10/16 09:09:01;;;;;;;11.47;3.37;;;8.90;96.30;;;;;;4934920;29;20443;-79
2021/10/16 09:11:53;;;;;;;10.27;3.90;;;9.30;96.30;;;;;;4938294;29;20469;-77
2021/10/16 09:14:27;;;;;;;7.33;2.87;;;10.00;96.30;;;;;;4938411;29;20422;-77
2021/10/16 09:16:58;;;;;;;12.83;3.33;;;10.40;96.30;;;;;;4941007;29;20764;-77
2021/10/16 09:19:28;;;;;;;13.63;2.87;;;11.00;96.30;;;;;;4955500;28;21046;-78
2021/10/16 09:21:55;;;;;;;13.63;3.10;;;11.70;96.30;;;;;;4952113;28;20472;-79
2021/10/16 09:24:26;;;;;;;7.37;2.53;;;12.30;96.30;;;;;;4954629;28;20426;-77
2021/10/16 09:26:55;;;;;;;9.57;3.60;;;12.80;96.30;;;;;;4954080;28;20430;-78
2021/10/16 09:29:22;;;;;;;12.20;2.93;;;13.30;96.30;;;;;;4956246;29;20887;-77
2021/10/16 09:31:54;;;;;;;10.67;3.87;;;13.70;96.30;;;;;;4956124;29;20568;-78
2021/10/16 09:34:28;;;;;;;11.90;3.70;;;14.00;96.30;;;;;;4957661;28;20415;-77
2021/10/16 09:37:06;;;;;;;11.30;3.07;;;13.90;96.30;;;;;;4956483;28;20774;-77
2021/10/16 09:39:32;;;;;;;9.90;2.70;;;13.80;96.30;;;;;;4956562;29;20406;-78
2021/10/16 09:41:58;;;;;;;15.80;2.97;;;14.30;96.30;;;;;;4955575;28;20513;-78
2021/10/16 09:44:25;;;;;;;8.27;2.93;;;14.60;96.30;;;;;;4949352;29;20410;-77
2021/10/16 09:47:01;;;;;;;12.67;2.70;;;14.90;96.30;;;;;;4947517;28;20179;-78
2021/10/16 09:49:35;;;;;;;7.23;2.53;;;14.80;96.30;;;;;;4947472;29;20408;-79
2021/10/16 09:52:04;;;;;;;9.33;2.97;;;14.90;96.30;;;;;;4952588;28;20437;-79
2021/10/16 09:54:30;;;;;;;7.30;2.27;;;15.10;96.30;;;;;;4959627;28;20883;-78
2021/10/16 09:56:59;;;;;;;10.00;2.23;;;15.00;96.30;;;;;;4954212;28;20430;-77
2021/10/16 09:59:25;;;;;;;6.10;2.57;;;14.90;96.30;;;;;;4956536;28;20427;-78
2021/10/16 10:01:52;;;;;;;7.40;1.70;;;14.70;96.30;;;;;;4949928;29;20573;-78
2021/10/16 10:04:20;;;;;;;7.77;2.50;;;14.70;96.30;;;;;;4946151;29;20415;-77
2021/10/16 10:06:47;;;;;;;8.93;3.20;;;14.90;96.30;;;;;;4946192;29;20420;-77
2021/10/16 10:09:14;;;;;;;10.80;3.23;;;15.30;95.90;;;;;;4952947;28;20410;-77
2021/10/16 10:11:41;;;;;;;6.50;2.60;;;15.50;94.50;;;;;;4955079;28;20529;-77
2021/10/16 10:14:06;;;;;;;10.33;2.43;;;16.10;93.20;;;;;;4955707;28;20427;-78
2021/10/16 10:16:33;;;;;;;6.90;1.80;;;16.30;95.30;;;;;;4955733;28;20415;-78
2021/10/16 10:19:01;;;;;;;9.17;2.20;;;16.10;89.30;;;;;;4949695;28;20291;-77
2021/10/16 10:21:35;;;;;;;6.70;1.63;;;16.30;88.40;;;;;;4937165;28;20962;-76
2021/10/16 10:24:06;;;;;;;8.60;2.40;;;15.30;87.90;;;;;;4935600;29;20478;-76
2021/10/16 10:26:36;;;;;;;9.60;2.60;;;15.00;93.60;;;;;;4963919;28;20418;-77
2021/10/16 10:29:14;;;;;;;3.60;1.70;;;15.10;96.30;;;;;;4940928;28;20947;-76
2021/10/16 10:31:45;;;;;;;9.10;1.90;;;15.50;96.30;;;;;;4935431;29;20517;-78
2021/10/16 10:34:17;;;;;;;5.80;2.10;;;14.50;93.50;;;;;;4946124;29;20419;-77
2021/10/16 10:36:43;;;;;;;6.67;2.17;;;14.00;96.30;;;;;;4936559;29;20430;-77
2021/10/16 10:39:35;;;;;;;5.20;1.83;;;14.10;94.90;;;;;;4936147;29;20446;-77
2021/10/16 10:42:13;;;;;;;3.93;1.83;;;13.20;96.30;;;;;;4935746;29;20463;-78
2021/10/16 10:44:46;;;;;;;4.77;1.63;;;12.40;96.30;;;;;;4936210;29;20422;-79
2021/10/16 10:47:25;;;;;;;3.73;2.30;;;12.50;96.30;;;;;;4935273;29;20422;-75
2021/10/16 10:49:52;;;;;;;5.40;2.20;;;12.70;96.30;;;;;;4936458;29;20422;-75
2021/10/16 10:52:19;;;;;;;9.47;2.50;;;12.30;96.30;;;;;;4935360;29;20439;-76
2021/10/16 10:55:06;;;;;;;10.30;2.77;;;13.00;96.30;;;;;;4940267;29;20795;-75
2021/10/16 10:57:44;;;;;;;5.77;2.20;;;14.20;96.30;;;;;;4936623;29;20454;-74
2021/10/16 11:00:14;;;;;;;13.83;2.60;;;14.80;96.30;;;;;;4936822;29;20415;-76
2021/10/16 11:02:40;;;;;;;7.93;1.93;;;15.00;96.30;;;;;;4950328;28;20973;-73
2021/10/16 11:05:31;;;;;;;9.63;2.33;;;15.10;95.60;;;;;;4954961;28;20417;-74
2021/10/16 11:08:12;;;;;;;4.93;1.90;;;14.70;94.80;;;;;;4955067;28;20587;-75
2021/10/16 11:10:38;;;;;;;7.37;2.00;;;15.00;93.30;;;;;;4954856;28;20434;-74
2021/10/16 11:13:14;;;;;;;10.80;2.37;;;14.80;91.80;;;;;;4954704;28;20518;-74
2021/10/16 11:15:41;;;;;;;10.10;2.00;;;14.00;96.30;;;;;;4944970;28;20967;-74
2021/10/16 11:18:11;;;;;;;5.23;1.60;;;14.00;96.20;;;;;;4935997;29;20458;-76
2021/10/16 11:20:37;;;;;;;6.07;1.90;;;14.20;94.30;;;;;;4936490;29;20445;-77
2021/10/16 11:23:03;;;;;;;9.93;2.17;;;14.40;90.90;;;;;;4935572;29;20935;-77
2021/10/16 11:25:30;;;;;;;5.60;2.10;;;14.00;93.40;;;;;;4935703;29;20456;-77
2021/10/16 11:28:08;;;;;;;4.93;2.00;;;14.00;92.80;;;;;;4948822;29;20418;-78
2021/10/16 11:30:39;;;;;;;10.20;2.10;;;14.20;96.30;;;;;;4954909;29;20441;-76
2021/10/16 11:33:11;;;;;;;4.93;1.80;;;14.40;95.90;;;;;;4953841;28;20415;-77
2021/10/16 11:35:38;;;;;;;5.63;2.10;;;14.30;96.30;;;;;;4946301;29;20422;-76
2021/10/16 11:38:04;;;;;;;6.60;1.90;;;14.50;96.30;;;;;;4955016;28;20422;-76
2021/10/16 11:40:31;;;;;;;7.50;2.27;;;14.80;93.20;;;;;;4952883;28;20462;-76
2021/10/16 11:43:01;;;;;;;5.10;1.90;;;13.70;94.50;;;;;;4954204;28;20458;-77
2021/10/16 11:45:32;;;;;;;8.63;1.90;;;13.80;95.90;;;;;;4954504;28;20406;-77
2021/10/16 11:48:09;;;;;;;8.43;2.17;;;13.80;95.90;;;;;;4954947;28;20406;-76
2021/10/16 11:50:38;;;;;;;5.70;2.10;;;14.00;96.30;;;;;;4955062;28;20418;-76
2021/10/16 11:53:12;;;;;;;8.43;2.40;;;14.00;94.00;;;;;;4951604;28;20542;-77
2021/10/16 11:55:41;;;;;;;7.67;2.70;;;13.90;93.20;;;;;;4951645;28;20432;-76
2021/10/16 11:58:13;;;;;;;5.13;3.00;;;14.00;96.30;;;;;;4953993;28;20438;-73
2021/10/16 12:00:40;;;;;;;6.07;2.37;;;14.60;96.30;;;;;;4947804;28;20447;-74
2021/10/16 12:03:13;;;;;;;7.67;3.27;;;15.20;95.00;;;;;;4934218;29;20546;-74
2021/10/16 12:05:40;;;;;;;8.63;2.10;;;15.80;94.30;;;;;;4941857;29;20978;-74
2021/10/16 12:08:32;;;;;;;17.97;2.60;;;15.30;96.30;;;;;;4954146;28;20423;-73
2021/10/16 12:11:03;;;;;;;6.33;1.80;;;15.70;91.90;;;;;;4951838;29;20526;-73
2021/10/16 12:13:37;;;;;;;9.83;2.60;;;15.30;92.00;;;;;;4943157;28;20428;-76
2021/10/16 12:16:17;;;;;;;9.40;2.23;;;15.00;94.70;;;;;;4935387;29;20400;-74
2021/10/16 12:18:55;;;;;;;8.13;2.40;;;14.80;96.20;;;;;;4935444;29;20999;-74
2021/10/16 12:21:39;;;;;;;8.03;2.67;;;14.70;94.50;;;;;;4933289;29;20986;-74
2021/10/16 12:24:20;;;;;;;10.83;2.47;;;14.10;93.50;;;;;;4935446;29;20761;-76
2021/10/16 12:26:47;;;;;;;4.00;2.00;;;13.70;93.60;;;;;;4934933;29;20443;-75
2021/10/16 12:29:33;;;;;;;6.80;1.90;;;13.40;95.80;;;;;;4934798;29;20954;-77
2021/10/16 12:32:00;;;;;;;7.73;2.67;;;13.30;96.30;;;;;;4934161;29;20435;-74
2021/10/16 12:34:31;;;;;;;4.27;1.47;;;14.00;95.30;;;;;;4935328;29;20411;-75
2021/10/16 12:37:02;;;;;;;7.60;1.90;;;14.30;92.00;;;;;;4967910;28;20429;-74
2021/10/16 12:39:34;;;;;;;7.83;2.10;;;13.90;91.60;;;;;;4954283;28;20469;-75
2021/10/16 12:42:11;;;;;;;14.40;3.50;;;14.30;91.30;;;;;;4953485;28;20462;-77
2021/10/16 12:44:44;;;;;;;4.30;1.43;;;14.00;90.60;;;;;;4954330;28;20461;-74
2021/10/16 12:47:14;;;;;;;6.40;1.57;;;14.60;88.60;;;;;;4950289;28;20431;-76
2021/10/16 12:49:47;;;;;;;6.63;1.70;;;15.00;90.80;;;;;;4940648;29;20757;-75
2021/10/16 12:52:30;;;;;;;9.23;2.43;;;15.50;91.30;;;;;;4936497;29;20482;-75
2021/10/16 12:55:01;;;;;;;8.47;2.33;;;15.50;88.50;;;;;;4951882;29;20779;-75
2021/10/16 12:57:28;;;;;;;8.53;1.90;;;15.30;91.80;;;;;;4938276;29;20478;-75
2021/10/16 12:59:54;;;;;;;12.90;4.17;;;14.90;93.20;;;;;;4938916;29;21056;-79
2021/10/16 13:02:20;;;;;;;10.03;2.47;;;14.50;94.20;;;;;;4948939;29;20482;-80
2021/10/16 13:04:50;;;;;;;8.13;2.27;;;14.30;95.60;;;;;;4950103;28;20186;-79
2021/10/16 13:07:17;;;;;;;11.60;2.90;;;14.10;96.20;;;;;;4938999;29;20509;-77
2021/10/16 13:09:43;;;;;;;4.70;1.73;;;14.10;96.20;;;;;;4953579;29;20438;-79
2021/10/16 13:12:10;;;;;;;5.30;1.53;;;13.70;96.30;;;;;;4942177;29;20443;-77
2021/10/16 13:14:36;;;;;;;8.03;1.90;;;13.90;96.30;;;;;;4939301;29;20601;-78
2021/10/16 13:17:01;;;;;;;11.20;2.93;;;14.10;96.30;;;;;;4937708;29;20447;-79
2021/10/16 13:19:27;;;;;;;8.60;2.97;;;14.00;96.30;;;;;;4937698;29;20443;-76
2021/10/16 13:21:52;;;;;;;8.10;2.07;;;13.90;96.30;;;;;;4938496;29;20255;-79
2021/10/16 13:24:18;;;;;;;5.37;2.30;;;13.80;96.30;;;;;;4955201;28;20241;-80
2021/10/16 13:26:43;;;;;;;6.13;2.00;;;13.60;95.90;;;;;;4946787;28;20776;-77
2021/10/16 13:29:09;;;;;;;5.40;1.80;;;13.40;96.30;;;;;;4957731;28;20174;-76
2021/10/16 13:31:34;;;;;;;8.77;2.07;;;13.30;95.50;;;;;;4942916;29;20699;-78
2021/10/16 13:34:01;;;;;;;15.33;2.00;;;13.30;96.30;;;;;;4955098;29;20733;-79
2021/10/16 13:36:27;;;;;;;6.93;1.97;;;13.20;96.30;;;;;;4958737;28;20175;-80
2021/10/16 13:38:54;;;;;;;5.53;1.73;;;13.10;96.30;;;;;;4945920;29;20979;-79
2021/10/16 13:41:20;;;;;;;5.67;1.70;;;12.70;96.30;;;;;;4959109;28;20442;-80
2021/10/16 13:43:46;;;;;;;6.33;2.03;;;12.50;96.30;;;;;;4957523;28;20483;-77
2021/10/16 13:46:13;;;;;;;12.77;2.03;;;12.30;96.30;;;;;;4943467;29;20510;-78
2021/10/16 13:48:39;;;;;;;14.43;2.40;;;12.40;96.30;;;;;;4938907;29;20419;-79
2021/10/16 13:51:04;;;;;;;5.50;2.03;;;12.60;96.30;;;;;;4935949;29;20439;-78
2021/10/16 13:53:30;;;;;;;3.50;1.60;;;12.70;95.90;;;;;;4936977;29;20196;-78
2021/10/16 13:55:55;;;;;;;9.33;2.20;;;12.20;96.30;;;;;;4936022;29;20183;-78
2021/10/16 13:58:21;;;;;;;5.70;1.70;;;12.30;96.30;;;;;;4937535;29;20187;-77
2021/10/16 14:00:48;;;;;;;6.20;2.00;;;12.30;96.30;;;;;;4937203;29;20698;-78
2021/10/16 14:03:15;;;;;;;7.20;1.77;;;12.40;96.30;;;;;;4936078;29;20235;-78
2021/10/16 14:05:40;;;;;;;6.20;2.30;;;12.50;96.30;;;;;;4937315;29;20924;-77
2021/10/16 14:08:06;;;;;;;4.47;1.50;;;12.60;96.30;;;;;;4936375;29;20426;-77
2021/10/16 14:10:31;;;;;;;8.40;2.20;;;12.70;95.90;;;;;;4938657;29;20182;-78
2021/10/16 14:12:57;;;;;;;6.80;1.60;;;12.70;96.30;;;;;;4944365;29;20187;-79
2021/10/16 14:15:22;;;;;;;11.00;1.87;;;12.80;96.30;;;;;;4956448;28;20187;-78
2021/10/16 14:17:47;;;;;;;9.10;2.30;;;12.90;96.30;;;;;;4956524;28;20197;-77
2021/10/16 14:20:13;;;;;;;3.83;1.27;;;12.70;95.70;;;;;;4947839;28;20211;-77
2021/10/16 14:22:39;;;;;;;10.37;2.17;;;12.40;96.30;;;;;;4936147;29;20204;-78
2021/10/16 14:25:08;;;;;;;8.93;1.67;;;12.30;96.30;;;;;;4938613;29;20207;-76
2021/10/16 14:27:35;;;;;;;4.90;1.80;;;12.20;96.30;;;;;;4938053;29;20187;-77
2021/10/16 14:30:01;;;;;;;8.43;3.73;;;12.10;96.30;;;;;;4944947;29;20414;-76
2021/10/16 14:32:26;;;;;;;6.50;2.00;;;12.00;96.30;;;;;;4955830;28;20442;-76
2021/10/16 14:34:52;;;;;;;10.20;2.20;;;11.80;96.30;;;;;;4955237;28;21006;-75
2021/10/16 14:37:18;;;;;;;6.20;1.73;;;11.60;96.30;;;;;;4956997;28;20175;-75
2021/10/16 14:39:43;;;;;;;7.03;1.53;;;11.60;96.30;;;;;;4957226;28;20210;-78
2021/10/16 14:42:09;;;;;;;4.80;1.37;;;11.60;96.30;;;;;;4949487;28;20211;-74
2021/10/16 14:44:34;;;;;;;10.43;2.30;;;11.40;96.30;;;;;;4937351;29;20190;-74
2021/10/16 14:47:00;;;;;;;5.30;1.63;;;11.40;96.30;;;;;;4937201;29;20263;-75
2021/10/16 14:49:26;;;;;;;7.83;1.80;;;11.40;96.30;;;;;;4939634;29;20206;-75
2021/10/16 14:51:52;;;;;;;4.50;1.50;;;11.40;96.30;;;;;;4954354;28;20435;-75
2021/10/16 14:54:17;;;;;;;7.03;1.90;;;11.40;96.30;;;;;;4955791;28;20220;-74
2021/10/16 14:56:43;;;;;;;5.83;1.80;;;11.30;96.30;;;;;;4954861;28;20249;-75
2021/10/16 14:59:08;;;;;;;7.10;1.90;;;11.20;96.30;;;;;;4953856;29;20175;-75
2021/10/16 15:01:34;;;;;;;14.27;2.40;;;11.10;96.30;;;;;;4954806;28;20698;-77
2021/10/16 15:04:00;;;;;;;5.90;1.90;;;10.90;96.30;;;;;;4945399;28;20199;-77
2021/10/16 15:06:25;;;;;;;6.03;2.00;;;10.80;96.30;;;;;;4951959;28;20188;-75
2021/10/16 15:08:52;;;;;;;10.03;2.00;;;10.70;96.30;;;;;;4943244;28;20190;-75
2021/10/16 15:11:18;;;;;;;5.57;1.90;;;10.60;96.30;;;;;;4949166;28;20226;-75
2021/10/16 15:13:43;;;;;;;10.73;1.73;;;10.60;96.30;;;;;;4942432;28;20494;-74
2021/10/16 15:16:09;;;;;;;11.00;1.90;;;10.50;96.30;;;;;;4935186;29;20179;-76
2021/10/16 15:18:34;;;;;;;6.47;1.83;;;10.40;96.30;;;;;;4950012;29;20194;-76
2021/10/16 15:20:59;;;;;;;9.57;1.87;;;10.20;96.30;;;;;;4954827;28;20213;-77
2021/10/16 15:23:25;;;;;;;7.07;1.40;;;10.10;96.30;;;;;;4955209;28;20253;-81
2021/10/16 15:25:51;;;;;;;7.67;1.80;;;10.10;96.30;;;;;;4948458;29;20171;-80
2021/10/16 15:28:17;;;;;;;4.80;1.83;;;10.10;96.30;;;;;;4939431;29;20180;-81
2021/10/16 15:30:43;;;;;;;8.63;2.17;;;10.20;96.30;;;;;;4952072;28;20446;-81
2021/10/16 15:33:09;;;;;;;9.43;2.33;;;10.20;96.30;;;;;;4942291;29;20180;-80
2021/10/16 15:35:34;;;;;;;6.00;1.87;;;10.20;96.30;;;;;;4944925;28;20430;-80
2021/10/16 15:38:00;;;;;;;7.53;1.90;;;10.20;96.30;;;;;;4952148;29;20184;-79
2021/10/16 15:40:25;;;;;;;6.07;1.60;;;10.20;96.30;;;;;;4945169;29;20175;-80
2021/10/16 15:42:51;;;;;;;10.07;2.87;;;10.10;96.30;;;;;;4944886;29;20242;-78
2021/10/16 15:45:17;;;;;;;17.00;1.90;;;10.00;96.30;;;;;;4937220;29;20691;-79
2021/10/16 15:47:43;;;;;;;10.63;2.07;;;10.00;96.30;;;;;;4943725;29;20191;-79
2021/10/16 15:50:08;;;;;;;17.63;2.13;;;10.00;96.30;;;;;;4935877;29;20407;-79
2021/10/16 15:52:35;;;;;;;6.87;2.07;;;9.80;96.30;;;;;;4940770;28;20696;-78
2021/10/16 15:55:00;;;;;;;6.00;2.00;;;9.60;96.30;;;;;;4943831;28;20542;-77
2021/10/16 15:57:26;;;;;;;6.93;2.00;;;9.50;96.30;;;;;;4953308;28;20422;-78
2021/10/16 15:59:51;;;;;;;9.10;2.13;;;9.40;96.30;;;;;;4950776;28;20568;-78
2021/10/16 16:02:17;;;;;;;6.60;2.00;;;9.40;96.30;;;;;;4933149;29;20291;-78
2021/10/16 16:04:43;;;;;;;5.53;1.90;;;9.30;96.30;;;;;;4938338;29;20180;-78
2021/10/16 16:07:09;;;;;;;8.60;1.90;;;9.20;96.30;;;;;;4942224;29;20904;-78
2021/10/16 16:09:35;;;;;;;10.53;2.20;;;9.20;96.30;;;;;;4933629;29;20477;-78
2021/10/16 16:12:00;;;;;;;6.97;1.63;;;9.10;96.30;;;;;;4934269;29;20251;-78
2021/10/16 16:14:26;;;;;;;4.80;1.80;;;9.10;96.30;;;;;;4935682;29;20178;-78
2021/10/16 16:16:51;;;;;;;12.03;2.40;;;9.00;96.30;;;;;;4950469;28;20181;-79
2021/10/16 16:19:17;;;;;;;7.10;1.53;;;8.90;96.30;;;;;;4941423;28;20559;-78
2021/10/16 16:21:42;;;;;;;10.10;2.50;;;8.70;96.30;;;;;;4943175;29;20199;-78
2021/10/16 16:24:08;;;;;;;6.47;2.20;;;8.70;96.30;;;;;;4942717;29;20203;-78
2021/10/16 16:26:34;;;;;;;4.63;1.80;;;8.60;96.30;;;;;;4944866;28;20638;-77
2021/10/16 16:28:59;;;;;;;5.97;2.23;;;8.50;96.30;;;;;;4945150;28;20180;-78
2021/10/16 16:31:25;;;;;;;9.70;2.63;;;8.40;96.30;;;;;;4944987;28;20454;-76
2021/10/16 16:33:50;;;;;;;7.30;1.70;;;8.40;96.30;;;;;;4945279;28;20234;-75
2021/10/16 16:36:16;;;;;;;5.23;1.87;;;8.40;96.30;;;;;;4942951;29;20182;-75
2021/10/16 16:38:42;;;;;;;13.80;1.97;;;8.20;96.30;;;;;;4947871;28;20239;-75
2021/10/16 16:41:07;;;;;;;4.70;2.00;;;8.20;96.30;;;;;;4945479;28;20251;-76
2021/10/16 16:43:33;;;;;;;4.63;1.70;;;8.10;96.30;;;;;;4941379;28;20211;-78
2021/10/16 16:45:58;;;;;;;8.10;1.90;;;8.00;96.30;;;;;;4940945;28;20176;-76
2021/10/16 16:48:24;;;;;;;5.03;1.47;;;7.80;96.30;;;;;;4943793;28;20262;-79
2021/10/16 16:50:50;;;;;;;6.43;2.33;;;7.80;96.30;;;;;;4943115;29;20213;-81